sensor_id;sensor_type;location;lat;lon;timestamp;P1;durP1;ratioP1;P2;durP2;ratioP2
29314;SDS011;16320;53.954;9.506;2022-09-29T10:36:12;51.75;;;19.77;;
29314;SDS011;16320;53.954;9.506;2022-09-29T10:39:44;19.85;;;9.57;;
29314;SDS011;16320;53.954;9.506;2022-09-29T10:42:53;24.13;;;10.88;;
29314;SDS011;16320;53.954;9.506;2022-09-29T10:46:00;17.42;;;8.20;;
29314;SDS011;16320;53.954;9.506;2022-09-29T10:49:18;14.30;;;6.45;;
29314;SDS011;16320;53.954;9.506;2022-09-29T10:52:26;13.55;;;6.60;;
29314;SDS011;16320;53.954;9.506;2022-09-29T10:55:32;13.48;;;7.05;;
29314;SDS011;16320;53.954;9.506;2022-09-29T10:58:39;22.88;;;7.63;;
29314;SDS011;16320;53.954;9.506;2022-09-29T11:02:09;10.02;;;5.38;;
29314;SDS011;16320;53.954;9.506;2022-09-29T11:05:27;9.50;;;5.90;;
29314;SDS011;16320;53.954;9.506;2022-09-29T11:08:32;15.00;;;5.82;;
29314;SDS011;16320;53.954;9.506;2022-09-29T11:12:29;13.13;;;4.80;;
29314;SDS011;16320;53.954;9.506;2022-09-29T11:16:01;11.82;;;4.68;;
29314;SDS011;16320;53.954;9.506;2022-09-29T11:29:26;11.43;;;4.15;;
29314;SDS011;16320;53.954;9.506;2022-09-29T11:34:01;14.85;;;3.50;;
29314;SDS011;16320;53.954;9.506;2022-09-29T11:46:58;9.52;;;2.17;;
29314;SDS011;16320;53.954;9.506;2022-09-29T11:51:20;15.65;;;2.00;;
29314;SDS011;16320;53.954;9.506;2022-09-29T12:19:37;7.20;;;3.05;;
29314;SDS011;16320;53.954;9.506;2022-09-29T12:22:49;15.07;;;3.60;;
29314;SDS011;16320;53.954;9.506;2022-09-29T12:26:40;8.20;;;3.70;;
29314;SDS011;16320;53.954;9.506;2022-09-29T12:31:05;15.02;;;5.45;;
29314;SDS011;16320;53.954;9.506;2022-09-29T12:35:26;27.58;;;8.63;;
29314;SDS011;16320;53.954;9.506;2022-09-29T12:39:41;47.40;;;17.77;;
29314;SDS011;16320;53.954;9.506;2022-09-29T12:42:58;40.78;;;19.38;;
29314;SDS011;16320;53.954;9.506;2022-09-29T12:46:33;54.25;;;19.50;;
29314;SDS011;16320;53.954;9.506;2022-09-29T12:49:59;34.58;;;13.30;;
29314;SDS011;16320;53.954;9.506;2022-09-29T12:57:27;17.17;;;6.80;;
29314;SDS011;16320;53.954;9.506;2022-09-29T13:00:43;15.32;;;5.60;;
29314;SDS011;16320;53.954;9.506;2022-09-29T13:08:01;8.43;;;4.22;;
29314;SDS011;16320;53.954;9.506;2022-09-29T13:11:40;8.88;;;4.05;;
29314;SDS011;16320;53.954;9.506;2022-09-29T13:19:10;10.38;;;4.32;;
29314;SDS011;16320;53.954;9.506;2022-09-29T13:30:05;10.95;;;5.75;;
29314;SDS011;16320;53.954;9.506;2022-09-29T13:33:23;9.18;;;5.28;;
29314;SDS011;16320;53.954;9.506;2022-09-29T13:36:33;16.35;;;6.10;;
29314;SDS011;16320;53.954;9.506;2022-09-29T13:40:03;14.60;;;8.18;;
29314;SDS011;16320;53.954;9.506;2022-09-29T13:43:35;17.42;;;9.85;;
29314;SDS011;16320;53.954;9.506;2022-09-29T13:47:26;25.13;;;9.25;;
29314;SDS011;16320;53.954;9.506;2022-09-29T13:50:41;18.02;;;8.73;;
29314;SDS011;16320;53.954;9.506;2022-09-29T13:57:26;28.80;;;10.68;;
29314;SDS011;16320;53.954;9.506;2022-09-29T14:00:31;28.02;;;12.93;;
29314;SDS011;16320;53.954;9.506;2022-09-29T14:03:37;40.72;;;13.57;;
29314;SDS011;16320;53.954;9.506;2022-09-29T14:06:46;44.78;;;15.50;;
29314;SDS011;16320;53.954;9.506;2022-09-29T14:09:51;56.63;;;18.85;;
29314;SDS011;16320;53.954;9.506;2022-09-29T14:12:59;58.72;;;20.13;;
29314;SDS011;16320;53.954;9.506;2022-09-29T14:16:20;51.97;;;21.30;;
29314;SDS011;16320;53.954;9.506;2022-09-29T14:20:21;65.43;;;21.55;;
29314;SDS011;16320;53.954;9.506;2022-09-29T14:23:45;70.57;;;21.92;;
29314;SDS011;16320;53.954;9.506;2022-09-29T14:26:56;69.95;;;24.35;;
29314;SDS011;16320;53.954;9.506;2022-09-29T14:30:36;69.90;;;24.42;;
29314;SDS011;16320;53.954;9.506;2022-09-29T14:33:47;76.60;;;24.73;;
29314;SDS011;16320;53.954;9.506;2022-09-29T14:36:56;88.45;;;34.45;;
29314;SDS011;16320;53.954;9.506;2022-09-29T14:40:04;65.55;;;25.23;;
29314;SDS011;16320;53.954;9.506;2022-09-29T14:58:07;65.95;;;20.00;;
29314;SDS011;16320;53.954;9.506;2022-09-29T15:01:32;44.78;;;14.70;;
29314;SDS011;16320;53.954;9.506;2022-09-29T15:04:42;45.33;;;12.82;;
29314;SDS011;16320;53.954;9.506;2022-09-29T15:07:49;35.25;;;14.52;;
29314;SDS011;16320;53.954;9.506;2022-09-29T15:10:54;44.90;;;13.40;;
29314;SDS011;16320;53.954;9.506;2022-09-29T15:14:00;27.63;;;12.82;;
29314;SDS011;16320;53.954;9.506;2022-09-29T15:17:19;31.48;;;12.02;;
29314;SDS011;16320;53.954;9.506;2022-09-29T15:20:53;33.88;;;11.77;;
29314;SDS011;16320;53.954;9.506;2022-09-29T15:27:12;33.38;;;10.82;;
29314;SDS011;16320;53.954;9.506;2022-09-29T15:30:18;22.42;;;8.48;;
29314;SDS011;16320;53.954;9.506;2022-09-29T15:33:27;16.77;;;7.90;;
29314;SDS011;16320;53.954;9.506;2022-09-29T15:36:35;22.42;;;7.05;;
29314;SDS011;16320;53.954;9.506;2022-09-29T15:39:43;15.55;;;6.10;;
29314;SDS011;16320;53.954;9.506;2022-09-29T15:42:59;15.88;;;5.72;;
29314;SDS011;16320;53.954;9.506;2022-09-29T15:46:11;15.20;;;4.97;;
29314;SDS011;16320;53.954;9.506;2022-09-29T15:49:50;11.60;;;5.03;;
29314;SDS011;16320;53.954;9.506;2022-09-29T15:52:56;11.95;;;3.70;;
29314;SDS011;16320;53.954;9.506;2022-09-29T15:56:08;21.98;;;6.47;;
29314;SDS011;16320;53.954;9.506;2022-09-29T15:59:17;14.50;;;4.13;;
29314;SDS011;16320;53.954;9.506;2022-09-29T16:02:30;10.93;;;4.60;;
29314;SDS011;16320;53.954;9.506;2022-09-29T16:05:44;9.85;;;5.53;;
29314;SDS011;16320;53.954;9.506;2022-09-29T16:09:38;17.95;;;5.40;;
29314;SDS011;16320;53.954;9.506;2022-09-29T16:16:25;22.88;;;7.95;;
29314;SDS011;16320;53.954;9.506;2022-09-29T16:19:35;20.38;;;8.60;;
29314;SDS011;16320;53.954;9.506;2022-09-29T16:22:45;26.00;;;9.50;;
29314;SDS011;16320;53.954;9.506;2022-09-29T16:35:45;30.33;;;9.43;;
29314;SDS011;16320;53.954;9.506;2022-09-29T16:38:56;26.77;;;10.25;;
29314;SDS011;16320;53.954;9.506;2022-09-29T16:42:01;27.33;;;9.05;;
29314;SDS011;16320;53.954;9.506;2022-09-29T16:45:12;35.20;;;9.25;;
29314;SDS011;16320;53.954;9.506;2022-09-29T16:48:19;22.98;;;9.23;;
29314;SDS011;16320;53.954;9.506;2022-09-29T16:51:26;25.70;;;9.18;;
29314;SDS011;16320;53.954;9.506;2022-09-29T16:54:45;33.13;;;10.00;;
29314;SDS011;16320;53.954;9.506;2022-09-29T17:00:59;36.45;;;9.98;;
29314;SDS011;16320;53.954;9.506;2022-09-29T17:04:07;29.38;;;11.38;;
29314;SDS011;16320;53.954;9.506;2022-09-29T17:07:13;38.83;;;13.48;;
29314;SDS011;16320;53.954;9.506;2022-09-29T17:10:21;36.92;;;13.15;;
29314;SDS011;16320;53.954;9.506;2022-09-29T17:13:27;30.80;;;12.93;;
29314;SDS011;16320;53.954;9.506;2022-09-29T17:16:36;35.47;;;13.38;;
29314;SDS011;16320;53.954;9.506;2022-09-29T17:19:41;48.03;;;12.60;;
29314;SDS011;16320;53.954;9.506;2022-09-29T17:22:46;29.90;;;11.57;;
29314;SDS011;16320;53.954;9.506;2022-09-29T17:25:51;34.63;;;12.02;;
29314;SDS011;16320;53.954;9.506;2022-09-29T17:32:20;42.35;;;12.05;;
29314;SDS011;16320;53.954;9.506;2022-09-29T17:35:27;44.30;;;12.07;;
29314;SDS011;16320;53.954;9.506;2022-09-29T17:38:38;39.83;;;11.88;;
29314;SDS011;16320;53.954;9.506;2022-09-29T17:41:43;38.67;;;12.40;;
29314;SDS011;16320;53.954;9.506;2022-09-29T17:44:49;33.97;;;12.48;;
29314;SDS011;16320;53.954;9.506;2022-09-29T17:47:53;39.42;;;13.73;;
29314;SDS011;16320;53.954;9.506;2022-09-29T17:50:58;38.10;;;13.20;;
29314;SDS011;16320;53.954;9.506;2022-09-29T17:54:03;49.55;;;15.75;;
29314;SDS011;16320;53.954;9.506;2022-09-29T17:57:14;43.53;;;12.35;;
29314;SDS011;16320;53.954;9.506;2022-09-29T18:00:32;43.05;;;13.43;;
29314;SDS011;16320;53.954;9.506;2022-09-29T18:03:41;45.40;;;13.63;;
29314;SDS011;16320;53.954;9.506;2022-09-29T18:06:45;55.58;;;12.95;;
29314;SDS011;16320;53.954;9.506;2022-09-29T18:09:50;47.00;;;12.68;;
29314;SDS011;16320;53.954;9.506;2022-09-29T18:12:57;38.88;;;13.43;;
29314;SDS011;16320;53.954;9.506;2022-09-29T18:16:02;37.20;;;13.30;;
29314;SDS011;16320;53.954;9.506;2022-09-29T18:19:12;57.25;;;14.35;;
29314;SDS011;16320;53.954;9.506;2022-09-29T18:22:22;41.22;;;13.27;;
29314;SDS011;16320;53.954;9.506;2022-09-29T18:25:27;53.45;;;14.32;;
29314;SDS011;16320;53.954;9.506;2022-09-29T18:28:33;51.38;;;13.52;;
29314;SDS011;16320;53.954;9.506;2022-09-29T18:31:38;48.33;;;14.10;;
29314;SDS011;16320;53.954;9.506;2022-09-29T18:37:46;47.85;;;12.73;;
29314;SDS011;16320;53.954;9.506;2022-09-29T18:40:51;57.65;;;13.85;;
29314;SDS011;16320;53.954;9.506;2022-09-29T18:43:58;53.55;;;13.90;;
29314;SDS011;16320;53.954;9.506;2022-09-29T18:47:03;50.45;;;15.15;;
29314;SDS011;16320;53.954;9.506;2022-09-29T18:50:15;74.57;;;17.77;;
29314;SDS011;16320;53.954;9.506;2022-09-29T18:53:26;56.63;;;16.00;;
29314;SDS011;16320;53.954;9.506;2022-09-29T18:56:30;62.70;;;16.20;;
29314;SDS011;16320;53.954;9.506;2022-09-29T18:59:37;54.38;;;17.08;;
29314;SDS011;16320;53.954;9.506;2022-09-29T19:02:42;73.82;;;18.30;;
29314;SDS011;16320;53.954;9.506;2022-09-29T19:05:51;91.53;;;23.88;;
29314;SDS011;16320;53.954;9.506;2022-09-29T19:08:57;112.00;;;30.92;;
29314;SDS011;16320;53.954;9.506;2022-09-29T19:12:02;107.55;;;33.38;;
29314;SDS011;16320;53.954;9.506;2022-09-29T19:15:06;98.50;;;30.63;;
29314;SDS011;16320;53.954;9.506;2022-09-29T19:18:17;92.80;;;25.17;;
29314;SDS011;16320;53.954;9.506;2022-09-29T19:21:26;92.68;;;22.67;;
29314;SDS011;16320;53.954;9.506;2022-09-29T19:24:31;84.97;;;19.00;;
29314;SDS011;16320;53.954;9.506;2022-09-29T19:27:36;93.88;;;27.02;;
29314;SDS011;16320;53.954;9.506;2022-09-29T19:30:46;72.03;;;17.05;;
29314;SDS011;16320;53.954;9.506;2022-09-29T19:33:51;69.53;;;16.67;;
29314;SDS011;16320;53.954;9.506;2022-09-29T19:36:58;68.78;;;16.23;;
29314;SDS011;16320;53.954;9.506;2022-09-29T19:40:03;65.75;;;16.38;;
29314;SDS011;16320;53.954;9.506;2022-09-29T19:43:12;72.80;;;17.98;;
29314;SDS011;16320;53.954;9.506;2022-09-29T19:46:17;65.70;;;16.67;;
29314;SDS011;16320;53.954;9.506;2022-09-29T19:49:23;78.38;;;18.92;;
29314;SDS011;16320;53.954;9.506;2022-09-29T19:52:29;85.43;;;21.92;;
29314;SDS011;16320;53.954;9.506;2022-09-29T19:55:38;74.20;;;21.75;;
29314;SDS011;16320;53.954;9.506;2022-09-29T19:58:43;99.30;;;23.55;;
29314;SDS011;16320;53.954;9.506;2022-09-29T20:01:49;93.75;;;25.75;;
29314;SDS011;16320;53.954;9.506;2022-09-29T20:04:56;91.05;;;25.38;;
29314;SDS011;16320;53.954;9.506;2022-09-29T20:08:31;105.28;;;28.30;;
29314;SDS011;16320;53.954;9.506;2022-09-29T20:11:42;91.07;;;22.13;;
29314;SDS011;16320;53.954;9.506;2022-09-29T20:14:49;115.28;;;29.15;;
29314;SDS011;16320;53.954;9.506;2022-09-29T20:17:54;114.55;;;30.52;;
29314;SDS011;16320;53.954;9.506;2022-09-29T20:20:59;118.97;;;35.38;;
29314;SDS011;16320;53.954;9.506;2022-09-29T20:24:13;121.10;;;34.67;;
29314;SDS011;16320;53.954;9.506;2022-09-29T20:27:20;112.70;;;38.33;;
29314;SDS011;16320;53.954;9.506;2022-09-29T20:30:25;127.50;;;38.72;;
29314;SDS011;16320;53.954;9.506;2022-09-29T20:33:30;121.43;;;34.03;;
29314;SDS011;16320;53.954;9.506;2022-09-29T20:36:36;132.95;;;34.25;;
29314;SDS011;16320;53.954;9.506;2022-09-29T20:39:41;153.50;;;32.67;;
29314;SDS011;16320;53.954;9.506;2022-09-29T20:42:46;149.32;;;32.00;;
29314;SDS011;16320;53.954;9.506;2022-09-29T20:45:58;143.15;;;29.35;;
29314;SDS011;16320;53.954;9.506;2022-09-29T20:49:07;153.95;;;31.08;;
29314;SDS011;16320;53.954;9.506;2022-09-29T20:52:12;177.45;;;32.40;;
29314;SDS011;16320;53.954;9.506;2022-09-29T20:58:21;135.70;;;30.60;;
29314;SDS011;16320;53.954;9.506;2022-09-29T21:01:26;160.48;;;29.65;;
29314;SDS011;16320;53.954;9.506;2022-09-29T21:04:34;146.63;;;31.33;;
29314;SDS011;16320;53.954;9.506;2022-09-29T21:07:39;154.95;;;31.38;;
29314;SDS011;16320;53.954;9.506;2022-09-29T21:10:45;166.93;;;31.98;;
29314;SDS011;16320;53.954;9.506;2022-09-29T21:13:50;158.60;;;32.08;;
29314;SDS011;16320;53.954;9.506;2022-09-29T21:17:00;165.07;;;33.05;;
29314;SDS011;16320;53.954;9.506;2022-09-29T21:20:08;165.15;;;32.25;;
29314;SDS011;16320;53.954;9.506;2022-09-29T21:23:12;183.38;;;33.22;;
29314;SDS011;16320;53.954;9.506;2022-09-29T21:26:18;170.35;;;33.65;;
29314;SDS011;16320;53.954;9.506;2022-09-29T21:29:26;178.18;;;35.28;;
29314;SDS011;16320;53.954;9.506;2022-09-29T21:32:31;172.73;;;33.38;;
29314;SDS011;16320;53.954;9.506;2022-09-29T21:35:35;188.10;;;34.58;;
29314;SDS011;16320;53.954;9.506;2022-09-29T21:38:40;169.55;;;34.15;;
29314;SDS011;16320;53.954;9.506;2022-09-29T21:41:46;175.90;;;34.05;;
29314;SDS011;16320;53.954;9.506;2022-09-29T21:44:51;177.25;;;34.85;;
29314;SDS011;16320;53.954;9.506;2022-09-29T21:48:00;169.02;;;34.05;;
29314;SDS011;16320;53.954;9.506;2022-09-29T21:51:15;175.48;;;34.50;;
29314;SDS011;16320;53.954;9.506;2022-09-29T21:54:25;185.07;;;34.30;;
29314;SDS011;16320;53.954;9.506;2022-09-29T21:57:30;189.27;;;34.67;;
29314;SDS011;16320;53.954;9.506;2022-09-29T22:00:34;192.68;;;34.63;;
29314;SDS011;16320;53.954;9.506;2022-09-29T22:03:42;186.95;;;36.63;;
29314;SDS011;16320;53.954;9.506;2022-09-29T22:06:52;197.05;;;37.22;;
29314;SDS011;16320;53.954;9.506;2022-09-29T22:09:56;196.38;;;37.03;;
29314;SDS011;16320;53.954;9.506;2022-09-29T22:13:01;188.05;;;40.50;;
29314;SDS011;16320;53.954;9.506;2022-09-29T22:16:07;212.40;;;39.83;;
29314;SDS011;16320;53.954;9.506;2022-09-29T22:19:16;198.48;;;39.90;;
29314;SDS011;16320;53.954;9.506;2022-09-29T22:22:28;210.68;;;40.22;;
29314;SDS011;16320;53.954;9.506;2022-09-29T22:25:32;195.43;;;39.97;;
29314;SDS011;16320;53.954;9.506;2022-09-29T22:28:37;210.82;;;39.92;;
29314;SDS011;16320;53.954;9.506;2022-09-29T22:31:42;197.07;;;37.90;;
29314;SDS011;16320;53.954;9.506;2022-09-29T22:34:50;185.07;;;35.33;;
29314;SDS011;16320;53.954;9.506;2022-09-29T22:37:55;200.93;;;38.58;;
29314;SDS011;16320;53.954;9.506;2022-09-29T22:41:05;199.45;;;39.10;;
29314;SDS011;16320;53.954;9.506;2022-09-29T22:44:16;189.60;;;38.38;;
29314;SDS011;16320;53.954;9.506;2022-09-29T22:47:27;187.40;;;38.05;;
29314;SDS011;16320;53.954;9.506;2022-09-29T22:50:32;209.48;;;39.78;;
29314;SDS011;16320;53.954;9.506;2022-09-29T22:53:37;206.35;;;40.05;;
29314;SDS011;16320;53.954;9.506;2022-09-29T22:56:43;206.70;;;39.38;;
29314;SDS011;16320;53.954;9.506;2022-09-29T22:59:47;202.63;;;39.78;;
29314;SDS011;16320;53.954;9.506;2022-09-29T23:02:52;182.32;;;38.22;;
29314;SDS011;16320;53.954;9.506;2022-09-29T23:05:58;211.60;;;40.30;;
29314;SDS011;16320;53.954;9.506;2022-09-29T23:09:04;218.35;;;40.35;;
29314;SDS011;16320;53.954;9.506;2022-09-29T23:12:09;191.20;;;38.72;;
29314;SDS011;16320;53.954;9.506;2022-09-29T23:15:21;197.15;;;39.08;;
29314;SDS011;16320;53.954;9.506;2022-09-29T23:18:32;204.55;;;38.80;;
29314;SDS011;16320;53.954;9.506;2022-09-29T23:21:38;209.13;;;37.83;;
29314;SDS011;16320;53.954;9.506;2022-09-29T23:24:42;219.77;;;39.83;;
29314;SDS011;16320;53.954;9.506;2022-09-29T23:27:47;211.57;;;40.10;;
29314;SDS011;16320;53.954;9.506;2022-09-29T23:30:53;220.35;;;41.92;;
29314;SDS011;16320;53.954;9.506;2022-09-29T23:33:58;219.88;;;39.20;;
29314;SDS011;16320;53.954;9.506;2022-09-29T23:37:03;222.85;;;40.92;;
29314;SDS011;16320;53.954;9.506;2022-09-29T23:40:08;221.50;;;41.55;;
29314;SDS011;16320;53.954;9.506;2022-09-29T23:43:13;220.18;;;40.05;;
29314;SDS011;16320;53.954;9.506;2022-09-29T23:46:17;232.55;;;41.15;;
29314;SDS011;16320;53.954;9.506;2022-09-29T23:49:25;216.68;;;40.38;;
29314;SDS011;16320;53.954;9.506;2022-09-29T23:52:31;209.73;;;39.85;;
29314;SDS011;16320;53.954;9.506;2022-09-29T23:55:38;198.32;;;39.70;;
29314;SDS011;16320;53.954;9.506;2022-09-29T23:58:42;225.82;;;40.33;;
